sensor_id;sensor_type;location;lat;lon;timestamp;P1;durP1;ratioP1;P2;durP2;ratioP2
56629;SDS011;42502;40.732;-74.254;2023-02-04T00:00:41;1.30;;;0.10;;
56629;SDS011;42502;40.732;-74.254;2023-02-04T00:02:42;1.70;;;0.10;;
56629;SDS011;42502;40.732;-74.254;2023-02-04T00:04:43;1.33;;;0.10;;
56629;SDS011;42502;40.732;-74.254;2023-02-04T00:06:44;0.30;;;0.10;;
56629;SDS011;42502;40.732;-74.254;2023-02-04T00:08:44;6.90;;;0.20;;
56629;SDS011;42502;40.732;-74.254;2023-02-04T00:10:45;0.20;;;0.10;;
56629;SDS011;42502;40.732;-74.254;2023-02-04T00:12:46;0.13;;;0.00;;
56629;SDS011;42502;40.732;-74.254;2023-02-04T00:14:50;0.25;;;0.10;;
56629;SDS011;42502;40.732;-74.254;2023-02-04T00:16:51;0.25;;;0.08;;
56629;SDS011;42502;40.732;-74.254;2023-02-04T00:18:52;3.05;;;0.10;;
56629;SDS011;42502;40.732;-74.254;2023-02-04T00:20:55;1.55;;;0.10;;
56629;SDS011;42502;40.732;-74.254;2023-02-04T00:22:56;1.83;;;0.13;;
56629;SDS011;42502;40.732;-74.254;2023-02-04T00:24:57;1.90;;;0.10;;
56629;SDS011;42502;40.732;-74.254;2023-02-04T00:27:04;1.15;;;0.20;;
56629;SDS011;42502;40.732;-74.254;2023-02-04T00:29:08;0.35;;;0.20;;
56629;SDS011;42502;40.732;-74.254;2023-02-04T00:31:09;1.13;;;0.10;;
56629;SDS011;42502;40.732;-74.254;2023-02-04T00:33:10;0.20;;;0.10;;
56629;SDS011;42502;40.732;-74.254;2023-02-04T00:35:11;0.30;;;0.20;;
56629;SDS011;42502;40.732;-74.254;2023-02-04T00:37:12;0.40;;;0.10;;
56629;SDS011;42502;40.732;-74.254;2023-02-04T00:39:13;0.30;;;0.10;;
56629;SDS011;42502;40.732;-74.254;2023-02-04T00:41:14;1.25;;;0.20;;
56629;SDS011;42502;40.732;-74.254;2023-02-04T00:43:15;1.23;;;0.10;;
56629;SDS011;42502;40.732;-74.254;2023-02-04T00:45:16;0.80;;;0.10;;
56629;SDS011;42502;40.732;-74.254;2023-02-04T00:47:17;0.95;;;0.00;;
56629;SDS011;42502;40.732;-74.254;2023-02-04T00:49:20;1.77;;;0.10;;
56629;SDS011;42502;40.732;-74.254;2023-02-04T00:51:21;0.32;;;0.10;;
56629;SDS011;42502;40.732;-74.254;2023-02-04T00:53:22;1.20;;;0.15;;
56629;SDS011;42502;40.732;-74.254;2023-02-04T00:55:23;1.13;;;0.15;;
56629;SDS011;42502;40.732;-74.254;2023-02-04T00:57:24;1.95;;;0.10;;
56629;SDS011;42502;40.732;-74.254;2023-02-04T00:59:25;0.90;;;0.10;;
56629;SDS011;42502;40.732;-74.254;2023-02-04T01:01:26;0.35;;;0.10;;
56629;SDS011;42502;40.732;-74.254;2023-02-04T01:03:27;1.30;;;0.30;;
56629;SDS011;42502;40.732;-74.254;2023-02-04T01:05:27;0.30;;;0.10;;
56629;SDS011;42502;40.732;-74.254;2023-02-04T01:07:28;0.70;;;0.20;;
56629;SDS011;42502;40.732;-74.254;2023-02-04T01:09:29;0.90;;;0.08;;
56629;SDS011;42502;40.732;-74.254;2023-02-04T01:11:30;0.80;;;0.05;;
56629;SDS011;42502;40.732;-74.254;2023-02-04T01:13:43;1.15;;;0.10;;
56629;SDS011;42502;40.732;-74.254;2023-02-04T01:15:45;1.17;;;0.10;;
56629;SDS011;42502;40.732;-74.254;2023-02-04T01:17:46;1.95;;;0.08;;
56629;SDS011;42502;40.732;-74.254;2023-02-04T01:19:47;0.63;;;0.10;;
56629;SDS011;42502;40.732;-74.254;2023-02-04T01:21:48;0.77;;;0.20;;
56629;SDS011;42502;40.732;-74.254;2023-02-04T01:23:48;0.50;;;0.08;;
56629;SDS011;42502;40.732;-74.254;2023-02-04T01:25:53;1.30;;;0.10;;
56629;SDS011;42502;40.732;-74.254;2023-02-04T01:27:53;1.55;;;0.10;;
56629;SDS011;42502;40.732;-74.254;2023-02-04T01:29:54;0.70;;;0.20;;
56629;SDS011;42502;40.732;-74.254;2023-02-04T01:31:55;1.77;;;0.20;;
56629;SDS011;42502;40.732;-74.254;2023-02-04T01:33:59;0.88;;;0.30;;
56629;SDS011;42502;40.732;-74.254;2023-02-04T01:36:03;2.45;;;0.32;;
56629;SDS011;42502;40.732;-74.254;2023-02-04T01:38:04;1.30;;;0.30;;
56629;SDS011;42502;40.732;-74.254;2023-02-04T01:40:05;1.85;;;0.50;;
56629;SDS011;42502;40.732;-74.254;2023-02-04T01:42:06;3.17;;;0.70;;
56629;SDS011;42502;40.732;-74.254;2023-02-04T01:44:08;2.55;;;0.65;;
56629;SDS011;42502;40.732;-74.254;2023-02-04T01:46:09;1.55;;;0.60;;
56629;SDS011;42502;40.732;-74.254;2023-02-04T01:48:13;2.85;;;0.60;;
56629;SDS011;42502;40.732;-74.254;2023-02-04T01:50:22;3.35;;;0.80;;
56629;SDS011;42502;40.732;-74.254;2023-02-04T01:52:23;3.53;;;0.63;;
56629;SDS011;42502;40.732;-74.254;2023-02-04T01:54:24;2.70;;;0.70;;
56629;SDS011;42502;40.732;-74.254;2023-02-04T01:56:29;2.92;;;0.77;;
56629;SDS011;42502;40.732;-74.254;2023-02-04T01:58:30;2.45;;;0.73;;
56629;SDS011;42502;40.732;-74.254;2023-02-04T02:00:32;2.50;;;0.60;;
56629;SDS011;42502;40.732;-74.254;2023-02-04T02:04:46;1.90;;;0.70;;
56629;SDS011;42502;40.732;-74.254;2023-02-04T02:06:53;3.45;;;0.80;;
56629;SDS011;42502;40.732;-74.254;2023-02-04T02:08:57;2.33;;;0.73;;
56629;SDS011;42502;40.732;-74.254;2023-02-04T02:10:58;5.80;;;1.10;;
56629;SDS011;42502;40.732;-74.254;2023-02-04T02:12:59;3.40;;;1.25;;
56629;SDS011;42502;40.732;-74.254;2023-02-04T02:15:01;5.10;;;1.65;;
56629;SDS011;42502;40.732;-74.254;2023-02-04T02:17:02;5.18;;;2.03;;
56629;SDS011;42502;40.732;-74.254;2023-02-04T02:19:03;5.05;;;1.67;;
56629;SDS011;42502;40.732;-74.254;2023-02-04T02:21:08;5.15;;;2.67;;
56629;SDS011;42502;40.732;-74.254;2023-02-04T02:25:18;11.02;;;3.30;;
56629;SDS011;42502;40.732;-74.254;2023-02-04T02:27:19;9.60;;;3.88;;
56629;SDS011;42502;40.732;-74.254;2023-02-04T02:29:21;9.55;;;4.00;;
56629;SDS011;42502;40.732;-74.254;2023-02-04T02:31:23;10.80;;;4.30;;
56629;SDS011;42502;40.732;-74.254;2023-02-04T02:33:24;9.60;;;3.63;;
56629;SDS011;42502;40.732;-74.254;2023-02-04T02:35:25;8.40;;;4.30;;
56629;SDS011;42502;40.732;-74.254;2023-02-04T02:37:26;8.20;;;3.95;;
56629;SDS011;42502;40.732;-74.254;2023-02-04T02:39:27;9.30;;;4.65;;
56629;SDS011;42502;40.732;-74.254;2023-02-04T02:41:28;13.02;;;4.40;;
56629;SDS011;42502;40.732;-74.254;2023-02-04T02:43:29;9.88;;;4.03;;
56629;SDS011;42502;40.732;-74.254;2023-02-04T02:45:31;11.45;;;4.57;;
56629;SDS011;42502;40.732;-74.254;2023-02-04T02:47:33;8.43;;;4.18;;
56629;SDS011;42502;40.732;-74.254;2023-02-04T02:49:34;10.00;;;4.32;;
56629;SDS011;42502;40.732;-74.254;2023-02-04T02:51:37;8.35;;;3.95;;
56629;SDS011;42502;40.732;-74.254;2023-02-04T02:53:38;11.70;;;4.05;;
56629;SDS011;42502;40.732;-74.254;2023-02-04T02:55:38;7.25;;;3.95;;
56629;SDS011;42502;40.732;-74.254;2023-02-04T02:57:43;7.03;;;3.58;;
56629;SDS011;42502;40.732;-74.254;2023-02-04T02:59:46;7.28;;;3.40;;
56629;SDS011;42502;40.732;-74.254;2023-02-04T03:01:47;5.50;;;3.10;;
56629;SDS011;42502;40.732;-74.254;2023-02-04T03:04:03;6.85;;;3.60;;
56629;SDS011;42502;40.732;-74.254;2023-02-04T03:06:09;4.80;;;2.65;;
56629;SDS011;42502;40.732;-74.254;2023-02-04T03:08:28;6.22;;;3.08;;
56629;SDS011;42502;40.732;-74.254;2023-02-04T03:10:29;5.47;;;1.95;;
56629;SDS011;42502;40.732;-74.254;2023-02-04T03:12:30;6.43;;;2.40;;
56629;SDS011;42502;40.732;-74.254;2023-02-04T03:14:31;5.30;;;2.38;;
56629;SDS011;42502;40.732;-74.254;2023-02-04T03:16:33;3.70;;;2.40;;
56629;SDS011;42502;40.732;-74.254;2023-02-04T03:18:36;4.95;;;1.98;;
56629;SDS011;42502;40.732;-74.254;2023-02-04T03:20:38;4.25;;;1.95;;
56629;SDS011;42502;40.732;-74.254;2023-02-04T03:22:40;4.45;;;1.85;;
56629;SDS011;42502;40.732;-74.254;2023-02-04T03:24:41;4.22;;;1.77;;
56629;SDS011;42502;40.732;-74.254;2023-02-04T03:26:42;4.03;;;1.50;;
56629;SDS011;42502;40.732;-74.254;2023-02-04T03:28:49;3.05;;;1.50;;
56629;SDS011;42502;40.732;-74.254;2023-02-04T03:30:49;3.20;;;1.42;;
56629;SDS011;42502;40.732;-74.254;2023-02-04T03:32:54;2.58;;;1.40;;
56629;SDS011;42502;40.732;-74.254;2023-02-04T03:34:55;2.50;;;1.30;;
56629;SDS011;42502;40.732;-74.254;2023-02-04T03:36:56;3.53;;;1.17;;
56629;SDS011;42502;40.732;-74.254;2023-02-04T03:39:00;2.80;;;1.10;;
56629;SDS011;42502;40.732;-74.254;2023-02-04T03:41:01;2.08;;;1.17;;
56629;SDS011;42502;40.732;-74.254;2023-02-04T03:43:02;4.15;;;1.10;;
56629;SDS011;42502;40.732;-74.254;2023-02-04T03:45:03;5.53;;;1.48;;
56629;SDS011;42502;40.732;-74.254;2023-02-04T03:47:04;5.32;;;1.05;;
56629;SDS011;42502;40.732;-74.254;2023-02-04T03:49:05;5.15;;;1.17;;
56629;SDS011;42502;40.732;-74.254;2023-02-04T03:51:05;3.45;;;0.90;;
56629;SDS011;42502;40.732;-74.254;2023-02-04T03:53:07;1.92;;;0.90;;
56629;SDS011;42502;40.732;-74.254;2023-02-04T03:55:08;3.85;;;0.70;;
56629;SDS011;42502;40.732;-74.254;2023-02-04T03:57:09;7.38;;;1.50;;
56629;SDS011;42502;40.732;-74.254;2023-02-04T03:59:12;3.95;;;0.90;;
56629;SDS011;42502;40.732;-74.254;2023-02-04T04:01:13;2.47;;;0.93;;
56629;SDS011;42502;40.732;-74.254;2023-02-04T04:03:14;3.78;;;0.82;;
56629;SDS011;42502;40.732;-74.254;2023-02-04T04:05:15;3.30;;;0.70;;
56629;SDS011;42502;40.732;-74.254;2023-02-04T04:07:16;4.30;;;0.68;;
56629;SDS011;42502;40.732;-74.254;2023-02-04T04:09:22;2.50;;;0.70;;
56629;SDS011;42502;40.732;-74.254;2023-02-04T04:11:23;2.35;;;0.60;;
56629;SDS011;42502;40.732;-74.254;2023-02-04T04:13:24;6.03;;;0.55;;
56629;SDS011;42502;40.732;-74.254;2023-02-04T04:15:25;1.88;;;0.60;;
56629;SDS011;42502;40.732;-74.254;2023-02-04T04:17:26;2.05;;;0.43;;
56629;SDS011;42502;40.732;-74.254;2023-02-04T04:19:30;3.22;;;0.70;;
56629;SDS011;42502;40.732;-74.254;2023-02-04T04:21:32;0.82;;;0.50;;
56629;SDS011;42502;40.732;-74.254;2023-02-04T04:23:33;2.38;;;0.60;;
56629;SDS011;42502;40.732;-74.254;2023-02-04T04:25:34;2.65;;;0.50;;
56629;SDS011;42502;40.732;-74.254;2023-02-04T04:27:35;2.65;;;0.50;;
56629;SDS011;42502;40.732;-74.254;2023-02-04T04:29:35;2.92;;;0.50;;
56629;SDS011;42502;40.732;-74.254;2023-02-04T04:31:36;2.53;;;0.50;;
56629;SDS011;42502;40.732;-74.254;2023-02-04T04:33:40;0.93;;;0.40;;
56629;SDS011;42502;40.732;-74.254;2023-02-04T04:35:44;1.60;;;0.50;;
56629;SDS011;42502;40.732;-74.254;2023-02-04T04:37:44;1.23;;;0.30;;
56629;SDS011;42502;40.732;-74.254;2023-02-04T04:39:45;2.42;;;0.30;;
56629;SDS011;42502;40.732;-74.254;2023-02-04T04:41:49;1.67;;;0.30;;
56629;SDS011;42502;40.732;-74.254;2023-02-04T04:43:50;1.33;;;0.38;;
56629;SDS011;42502;40.732;-74.254;2023-02-04T04:45:51;1.90;;;0.40;;
56629;SDS011;42502;40.732;-74.254;2023-02-04T04:47:52;2.97;;;0.28;;
56629;SDS011;42502;40.732;-74.254;2023-02-04T04:49:53;0.98;;;0.30;;
56629;SDS011;42502;40.732;-74.254;2023-02-04T04:51:53;1.67;;;0.35;;
56629;SDS011;42502;40.732;-74.254;2023-02-04T04:53:54;1.20;;;0.22;;
56629;SDS011;42502;40.732;-74.254;2023-02-04T04:55:55;0.50;;;0.30;;
56629;SDS011;42502;40.732;-74.254;2023-02-04T04:57:56;0.45;;;0.30;;
56629;SDS011;42502;40.732;-74.254;2023-02-04T04:59:57;0.40;;;0.25;;
56629;SDS011;42502;40.732;-74.254;2023-02-04T05:01:57;0.55;;;0.30;;
56629;SDS011;42502;40.732;-74.254;2023-02-04T05:03:58;1.38;;;0.17;;
56629;SDS011;42502;40.732;-74.254;2023-02-04T05:05:59;2.17;;;0.30;;
56629;SDS011;42502;40.732;-74.254;2023-02-04T05:08:00;1.48;;;0.35;;
56629;SDS011;42502;40.732;-74.254;2023-02-04T05:10:01;0.50;;;0.30;;
56629;SDS011;42502;40.732;-74.254;2023-02-04T05:12:02;0.35;;;0.20;;
56629;SDS011;42502;40.732;-74.254;2023-02-04T05:14:03;0.47;;;0.17;;
56629;SDS011;42502;40.732;-74.254;2023-02-04T05:16:04;0.35;;;0.20;;
56629;SDS011;42502;40.732;-74.254;2023-02-04T05:18:08;1.10;;;0.20;;
56629;SDS011;42502;40.732;-74.254;2023-02-04T05:20:09;1.83;;;0.30;;
56629;SDS011;42502;40.732;-74.254;2023-02-04T05:22:10;0.28;;;0.10;;
56629;SDS011;42502;40.732;-74.254;2023-02-04T05:24:14;0.20;;;0.10;;
56629;SDS011;42502;40.732;-74.254;2023-02-04T05:26:15;0.70;;;0.20;;
56629;SDS011;42502;40.732;-74.254;2023-02-04T05:28:16;0.20;;;0.10;;
56629;SDS011;42502;40.732;-74.254;2023-02-04T05:30:17;0.45;;;0.20;;
56629;SDS011;42502;40.732;-74.254;2023-02-04T05:32:17;0.20;;;0.20;;
56629;SDS011;42502;40.732;-74.254;2023-02-04T05:34:22;0.30;;;0.10;;
56629;SDS011;42502;40.732;-74.254;2023-02-04T05:36:22;0.20;;;0.10;;
56629;SDS011;42502;40.732;-74.254;2023-02-04T05:38:23;0.30;;;0.20;;
56629;SDS011;42502;40.732;-74.254;2023-02-04T05:40:24;0.30;;;0.20;;
56629;SDS011;42502;40.732;-74.254;2023-02-04T05:42:25;0.20;;;0.10;;
56629;SDS011;42502;40.732;-74.254;2023-02-04T05:44:26;0.22;;;0.10;;
56629;SDS011;42502;40.732;-74.254;2023-02-04T05:46:27;0.32;;;0.10;;
56629;SDS011;42502;40.732;-74.254;2023-02-04T05:48:28;0.10;;;0.10;;
56629;SDS011;42502;40.732;-74.254;2023-02-04T05:50:28;0.20;;;0.10;;
56629;SDS011;42502;40.732;-74.254;2023-02-04T05:52:35;0.10;;;0.10;;
56629;SDS011;42502;40.732;-74.254;2023-02-04T05:54:35;0.10;;;0.10;;
56629;SDS011;42502;40.732;-74.254;2023-02-04T05:56:36;0.20;;;0.10;;
56629;SDS011;42502;40.732;-74.254;2023-02-04T05:58:37;0.38;;;0.10;;
56629;SDS011;42502;40.732;-74.254;2023-02-04T06:00:38;0.20;;;0.20;;
56629;SDS011;42502;40.732;-74.254;2023-02-04T06:02:42;2.05;;;0.10;;
56629;SDS011;42502;40.732;-74.254;2023-02-04T06:04:45;0.40;;;0.10;;
56629;SDS011;42502;40.732;-74.254;2023-02-04T06:06:46;0.28;;;0.10;;
56629;SDS011;42502;40.732;-74.254;2023-02-04T06:08:47;0.30;;;0.13;;
56629;SDS011;42502;40.732;-74.254;2023-02-04T06:10:48;0.15;;;0.10;;
56629;SDS011;42502;40.732;-74.254;2023-02-04T06:12:49;0.68;;;0.10;;
56629;SDS011;42502;40.732;-74.254;2023-02-04T06:14:52;0.47;;;0.10;;
56629;SDS011;42502;40.732;-74.254;2023-02-04T06:16:53;0.50;;;0.10;;
56629;SDS011;42502;40.732;-74.254;2023-02-04T06:18:54;0.10;;;0.10;;
56629;SDS011;42502;40.732;-74.254;2023-02-04T06:20:55;0.55;;;0.10;;
56629;SDS011;42502;40.732;-74.254;2023-02-04T06:22:55;0.17;;;0.05;;
56629;SDS011;42502;40.732;-74.254;2023-02-04T06:24:59;0.20;;;0.10;;
56629;SDS011;42502;40.732;-74.254;2023-02-04T06:26:59;0.65;;;0.10;;
56629;SDS011;42502;40.732;-74.254;2023-02-04T06:29:00;0.40;;;0.10;;
56629;SDS011;42502;40.732;-74.254;2023-02-04T06:31:01;1.02;;;0.10;;
56629;SDS011;42502;40.732;-74.254;2023-02-04T06:33:02;0.77;;;0.03;;
56629;SDS011;42502;40.732;-74.254;2023-02-04T06:35:03;2.08;;;0.10;;
56629;SDS011;42502;40.732;-74.254;2023-02-04T06:37:04;0.25;;;0.15;;
56629;SDS011;42502;40.732;-74.254;2023-02-04T06:39:05;0.77;;;0.10;;
56629;SDS011;42502;40.732;-74.254;2023-02-04T06:41:09;0.47;;;0.10;;
56629;SDS011;42502;40.732;-74.254;2023-02-04T06:43:10;0.30;;;0.10;;
56629;SDS011;42502;40.732;-74.254;2023-02-04T06:45:10;1.92;;;0.20;;
56629;SDS011;42502;40.732;-74.254;2023-02-04T06:47:11;0.17;;;0.10;;
56629;SDS011;42502;40.732;-74.254;2023-02-04T06:49:12;0.35;;;0.10;;
56629;SDS011;42502;40.732;-74.254;2023-02-04T06:51:13;0.65;;;0.10;;
56629;SDS011;42502;40.732;-74.254;2023-02-04T06:53:14;0.32;;;0.10;;
56629;SDS011;42502;40.732;-74.254;2023-02-04T06:55:15;1.17;;;0.10;;
56629;SDS011;42502;40.732;-74.254;2023-02-04T06:57:16;0.15;;;0.10;;
56629;SDS011;42502;40.732;-74.254;2023-02-04T06:59:17;0.20;;;0.10;;
56629;SDS011;42502;40.732;-74.254;2023-02-04T07:01:18;0.30;;;0.10;;
56629;SDS011;42502;40.732;-74.254;2023-02-04T07:03:19;0.47;;;0.10;;
56629;SDS011;42502;40.732;-74.254;2023-02-04T07:05:23;0.30;;;0.10;;
56629;SDS011;42502;40.732;-74.254;2023-02-04T07:07:26;0.30;;;0.10;;
56629;SDS011;42502;40.732;-74.254;2023-02-04T07:09:27;0.25;;;0.10;;
56629;SDS011;42502;40.732;-74.254;2023-02-04T07:11:28;0.10;;;0.10;;
56629;SDS011;42502;40.732;-74.254;2023-02-04T07:13:29;0.20;;;0.05;;
56629;SDS011;42502;40.732;-74.254;2023-02-04T07:15:30;0.63;;;0.10;;
56629;SDS011;42502;40.732;-74.254;2023-02-04T07:17:31;0.98;;;0.10;;
56629;SDS011;42502;40.732;-74.254;2023-02-04T07:19:32;0.20;;;0.10;;
56629;SDS011;42502;40.732;-74.254;2023-02-04T07:21:33;0.25;;;0.10;;
56629;SDS011;42502;40.732;-74.254;2023-02-04T07:23:33;0.00;;;0.00;;
56629;SDS011;42502;40.732;-74.254;2023-02-04T07:25:37;1.00;;;0.00;;
56629;SDS011;42502;40.732;-74.254;2023-02-04T07:27:38;0.20;;;0.10;;
56629;SDS011;42502;40.732;-74.254;2023-02-04T07:29:39;0.10;;;0.10;;
56629;SDS011;42502;40.732;-74.254;2023-02-04T07:31:39;0.10;;;0.10;;
56629;SDS011;42502;40.732;-74.254;2023-02-04T07:33:40;1.45;;;0.00;;
56629;SDS011;42502;40.732;-74.254;2023-02-04T07:35:41;0.65;;;0.10;;
56629;SDS011;42502;40.732;-74.254;2023-02-04T07:37:43;1.88;;;0.10;;
56629;SDS011;42502;40.732;-74.254;2023-02-04T07:39:44;0.20;;;0.10;;
56629;SDS011;42502;40.732;-74.254;2023-02-04T07:41:47;0.10;;;0.05;;
56629;SDS011;42502;40.732;-74.254;2023-02-04T07:43:48;0.15;;;0.00;;
56629;SDS011;42502;40.732;-74.254;2023-02-04T07:45:49;1.17;;;0.00;;
56629;SDS011;42502;40.732;-74.254;2023-02-04T07:47:50;0.25;;;0.10;;
56629;SDS011;42502;40.732;-74.254;2023-02-04T07:49:51;0.08;;;0.00;;
56629;SDS011;42502;40.732;-74.254;2023-02-04T07:51:56;0.00;;;0.00;;
56629;SDS011;42502;40.732;-74.254;2023-02-04T07:53:57;0.10;;;0.00;;
56629;SDS011;42502;40.732;-74.254;2023-02-04T07:56:04;0.08;;;0.00;;
56629;SDS011;42502;40.732;-74.254;2023-02-04T07:58:04;0.25;;;0.03;;
56629;SDS011;42502;40.732;-74.254;2023-02-04T08:00:05;0.30;;;0.10;;
56629;SDS011;42502;40.732;-74.254;2023-02-04T08:02:08;0.85;;;0.10;;
56629;SDS011;42502;40.732;-74.254;2023-02-04T08:04:09;0.20;;;0.10;;
56629;SDS011;42502;40.732;-74.254;2023-02-04T08:06:10;0.20;;;0.10;;
56629;SDS011;42502;40.732;-74.254;2023-02-04T08:08:11;0.82;;;0.10;;
56629;SDS011;42502;40.732;-74.254;2023-02-04T08:10:12;0.10;;;0.00;;
56629;SDS011;42502;40.732;-74.254;2023-02-04T08:12:13;0.08;;;0.08;;
56629;SDS011;42502;40.732;-74.254;2023-02-04T08:14:14;0.25;;;0.10;;
56629;SDS011;42502;40.732;-74.254;2023-02-04T08:16:15;0.73;;;0.15;;
56629;SDS011;42502;40.732;-74.254;2023-02-04T08:18:15;0.10;;;0.10;;
56629;SDS011;42502;40.732;-74.254;2023-02-04T08:20:16;0.98;;;0.10;;
56629;SDS011;42502;40.732;-74.254;2023-02-04T08:22:17;0.03;;;0.03;;
56629;SDS011;42502;40.732;-74.254;2023-02-04T08:24:18;0.45;;;0.10;;
56629;SDS011;42502;40.732;-74.254;2023-02-04T08:26:22;0.60;;;0.10;;
56629;SDS011;42502;40.732;-74.254;2023-02-04T08:28:22;0.52;;;0.10;;
56629;SDS011;42502;40.732;-74.254;2023-02-04T08:30:23;0.10;;;0.10;;
56629;SDS011;42502;40.732;-74.254;2023-02-04T08:32:24;0.17;;;0.10;;
56629;SDS011;42502;40.732;-74.254;2023-02-04T08:34:26;0.85;;;0.20;;
56629;SDS011;42502;40.732;-74.254;2023-02-04T08:36:27;0.30;;;0.10;;
56629;SDS011;42502;40.732;-74.254;2023-02-04T08:38:28;0.30;;;0.10;;
56629;SDS011;42502;40.732;-74.254;2023-02-04T08:40:29;0.17;;;0.10;;
56629;SDS011;42502;40.732;-74.254;2023-02-04T08:42:30;0.25;;;0.00;;
56629;SDS011;42502;40.732;-74.254;2023-02-04T08:44:46;0.47;;;0.20;;
56629;SDS011;42502;40.732;-74.254;2023-02-04T08:46:46;0.85;;;0.10;;
56629;SDS011;42502;40.732;-74.254;2023-02-04T08:48:47;2.75;;;0.10;;
56629;SDS011;42502;40.732;-74.254;2023-02-04T08:50:51;1.58;;;0.20;;
56629;SDS011;42502;40.732;-74.254;2023-02-04T08:52:52;1.73;;;0.10;;
56629;SDS011;42502;40.732;-74.254;2023-02-04T08:54:53;5.63;;;0.20;;
56629;SDS011;42502;40.732;-74.254;2023-02-04T08:56:54;0.45;;;0.10;;
56629;SDS011;42502;40.732;-74.254;2023-02-04T08:58:58;2.88;;;0.10;;
56629;SDS011;42502;40.732;-74.254;2023-02-04T09:00:58;1.30;;;0.10;;
56629;SDS011;42502;40.732;-74.254;2023-02-04T09:03:02;4.07;;;0.20;;
56629;SDS011;42502;40.732;-74.254;2023-02-04T09:05:03;1.20;;;0.20;;
56629;SDS011;42502;40.732;-74.254;2023-02-04T09:07:05;2.63;;;0.20;;
56629;SDS011;42502;40.732;-74.254;2023-02-04T09:09:05;0.82;;;0.17;;
56629;SDS011;42502;40.732;-74.254;2023-02-04T09:11:06;1.85;;;0.20;;
56629;SDS011;42502;40.732;-74.254;2023-02-04T09:13:09;7.85;;;0.30;;
56629;SDS011;42502;40.732;-74.254;2023-02-04T09:15:10;1.17;;;0.20;;
56629;SDS011;42502;40.732;-74.254;2023-02-04T09:17:11;2.95;;;0.20;;
56629;SDS011;42502;40.732;-74.254;2023-02-04T09:19:12;0.63;;;0.25;;
56629;SDS011;42502;40.732;-74.254;2023-02-04T09:21:15;5.43;;;0.20;;
56629;SDS011;42502;40.732;-74.254;2023-02-04T09:23:16;2.95;;;0.20;;
56629;SDS011;42502;40.732;-74.254;2023-02-04T09:25:17;3.00;;;0.20;;
56629;SDS011;42502;40.732;-74.254;2023-02-04T09:27:17;3.60;;;0.20;;
56629;SDS011;42502;40.732;-74.254;2023-02-04T09:29:19;1.10;;;0.20;;
56629;SDS011;42502;40.732;-74.254;2023-02-04T09:31:20;2.28;;;0.40;;
56629;SDS011;42502;40.732;-74.254;2023-02-04T09:33:20;1.50;;;0.20;;
56629;SDS011;42502;40.732;-74.254;2023-02-04T09:35:22;1.95;;;0.30;;
56629;SDS011;42502;40.732;-74.254;2023-02-04T09:37:23;3.15;;;0.20;;
56629;SDS011;42502;40.732;-74.254;2023-02-04T09:39:26;1.23;;;0.30;;
56629;SDS011;42502;40.732;-74.254;2023-02-04T09:41:27;4.68;;;0.30;;
56629;SDS011;42502;40.732;-74.254;2023-02-04T09:43:29;1.15;;;0.20;;
56629;SDS011;42502;40.732;-74.254;2023-02-04T09:45:33;1.77;;;0.20;;
56629;SDS011;42502;40.732;-74.254;2023-02-04T09:47:35;1.85;;;0.40;;
56629;SDS011;42502;40.732;-74.254;2023-02-04T09:49:36;2.80;;;0.20;;
56629;SDS011;42502;40.732;-74.254;2023-02-04T09:51:37;1.05;;;0.25;;
56629;SDS011;42502;40.732;-74.254;2023-02-04T09:53:38;0.43;;;0.10;;
56629;SDS011;42502;40.732;-74.254;2023-02-04T09:55:40;2.22;;;0.30;;
56629;SDS011;42502;40.732;-74.254;2023-02-04T09:57:44;0.75;;;0.17;;
56629;SDS011;42502;40.732;-74.254;2023-02-04T09:59:45;4.05;;;0.35;;
56629;SDS011;42502;40.732;-74.254;2023-02-04T10:01:51;2.55;;;0.20;;
56629;SDS011;42502;40.732;-74.254;2023-02-04T10:03:58;6.35;;;0.47;;
56629;SDS011;42502;40.732;-74.254;2023-02-04T10:06:03;2.72;;;0.30;;
56629;SDS011;42502;40.732;-74.254;2023-02-04T10:08:04;0.50;;;0.20;;
56629;SDS011;42502;40.732;-74.254;2023-02-04T10:10:05;0.82;;;0.20;;
56629;SDS011;42502;40.732;-74.254;2023-02-04T10:12:12;1.17;;;0.30;;
56629;SDS011;42502;40.732;-74.254;2023-02-04T10:14:18;2.33;;;0.25;;
56629;SDS011;42502;40.732;-74.254;2023-02-04T10:16:38;0.55;;;0.30;;
56629;SDS011;42502;40.732;-74.254;2023-02-04T10:18:42;1.58;;;0.20;;
56629;SDS011;42502;40.732;-74.254;2023-02-04T10:20:44;0.85;;;0.17;;
56629;SDS011;42502;40.732;-74.254;2023-02-04T10:22:48;2.80;;;0.20;;
56629;SDS011;42502;40.732;-74.254;2023-02-04T10:24:54;1.30;;;0.20;;
56629;SDS011;42502;40.732;-74.254;2023-02-04T10:27:05;0.28;;;0.10;;
56629;SDS011;42502;40.732;-74.254;2023-02-04T10:29:18;3.50;;;0.20;;
56629;SDS011;42502;40.732;-74.254;2023-02-04T10:31:26;0.43;;;0.10;;
56629;SDS011;42502;40.732;-74.254;2023-02-04T10:33:27;1.65;;;0.20;;
56629;SDS011;42502;40.732;-74.254;2023-02-04T10:35:28;1.85;;;0.20;;
56629;SDS011;42502;40.732;-74.254;2023-02-04T10:37:34;0.40;;;0.20;;
56629;SDS011;42502;40.732;-74.254;2023-02-04T10:39:40;29.33;;;0.45;;
56629;SDS011;42502;40.732;-74.254;2023-02-04T10:41:49;1.05;;;0.20;;
56629;SDS011;42502;40.732;-74.254;2023-02-04T10:44:02;3.70;;;0.20;;
56629;SDS011;42502;40.732;-74.254;2023-02-04T10:46:07;3.67;;;0.15;;
56629;SDS011;42502;40.732;-74.254;2023-02-04T10:48:13;1.20;;;0.20;;
56629;SDS011;42502;40.732;-74.254;2023-02-04T10:50:16;3.20;;;0.20;;
56629;SDS011;42502;40.732;-74.254;2023-02-04T10:52:19;0.30;;;0.20;;
56629;SDS011;42502;40.732;-74.254;2023-02-04T10:54:26;1.63;;;0.20;;
56629;SDS011;42502;40.732;-74.254;2023-02-04T10:56:34;2.47;;;0.10;;
56629;SDS011;42502;40.732;-74.254;2023-02-04T10:58:35;3.85;;;0.30;;
56629;SDS011;42502;40.732;-74.254;2023-02-04T11:00:36;1.55;;;0.20;;
56629;SDS011;42502;40.732;-74.254;2023-02-04T11:05:01;2.25;;;0.20;;
56629;SDS011;42502;40.732;-74.254;2023-02-04T11:07:06;3.22;;;0.20;;
56629;SDS011;42502;40.732;-74.254;2023-02-04T11:09:12;1.95;;;0.20;;
56629;SDS011;42502;40.732;-74.254;2023-02-04T11:11:15;3.83;;;0.22;;
56629;SDS011;42502;40.732;-74.254;2023-02-04T11:13:24;2.88;;;0.20;;
56629;SDS011;42502;40.732;-74.254;2023-02-04T11:17:57;4.35;;;0.20;;
56629;SDS011;42502;40.732;-74.254;2023-02-04T11:20:15;7.22;;;0.25;;
56629;SDS011;42502;40.732;-74.254;2023-02-04T11:22:36;1.90;;;0.20;;
56629;SDS011;42502;40.732;-74.254;2023-02-04T11:24:42;2.50;;;0.10;;
56629;SDS011;42502;40.732;-74.254;2023-02-04T11:31:03;2.58;;;0.20;;
56629;SDS011;42502;40.732;-74.254;2023-02-04T11:33:36;0.70;;;0.20;;
56629;SDS011;42502;40.732;-74.254;2023-02-04T11:35:49;0.35;;;0.10;;
56629;SDS011;42502;40.732;-74.254;2023-02-04T11:38:21;1.35;;;0.13;;
56629;SDS011;42502;40.732;-74.254;2023-02-04T11:40:30;1.30;;;0.30;;
56629;SDS011;42502;40.732;-74.254;2023-02-04T11:42:37;2.30;;;0.20;;
56629;SDS011;42502;40.732;-74.254;2023-02-04T11:44:47;1.65;;;0.10;;
56629;SDS011;42502;40.732;-74.254;2023-02-04T11:46:52;1.25;;;0.10;;
56629;SDS011;42502;40.732;-74.254;2023-02-04T11:48:55;0.43;;;0.20;;
56629;SDS011;42502;40.732;-74.254;2023-02-04T11:50:58;0.40;;;0.20;;
56629;SDS011;42502;40.732;-74.254;2023-02-04T11:53:01;2.22;;;0.20;;
56629;SDS011;42502;40.732;-74.254;2023-02-04T11:55:05;0.82;;;0.20;;
56629;SDS011;42502;40.732;-74.254;2023-02-04T11:57:09;0.30;;;0.10;;
56629;SDS011;42502;40.732;-74.254;2023-02-04T11:59:11;0.40;;;0.10;;
56629;SDS011;42502;40.732;-74.254;2023-02-04T12:01:20;1.70;;;0.20;;
56629;SDS011;42502;40.732;-74.254;2023-02-04T12:05:39;1.00;;;0.15;;
56629;SDS011;42502;40.732;-74.254;2023-02-04T12:07:42;0.20;;;0.10;;
56629;SDS011;42502;40.732;-74.254;2023-02-04T12:09:47;0.28;;;0.20;;
56629;SDS011;42502;40.732;-74.254;2023-02-04T12:11:55;1.23;;;0.10;;